createdAt,value
2022-07-29T04:01:29.706Z,100871.23
2022-07-29T04:03:57.944Z,100871.44
2022-07-29T04:06:26.531Z,100868.45
2022-07-29T04:08:53.842Z,100870.83
2022-07-29T04:11:20.752Z,100867.81
2022-07-29T04:13:47.587Z,100866.67
2022-07-29T04:16:14.614Z,100863.45
2022-07-29T04:18:43.729Z,100862.84
2022-07-29T04:21:15.974Z,100861.20
2022-07-29T04:23:53.086Z,100859.16
2022-07-29T04:26:22.535Z,100857.36
2022-07-29T04:28:50.269Z,100853.24
2022-07-29T04:31:21.234Z,100855.48
2022-07-29T04:33:51.708Z,100853.49
2022-07-29T04:36:29.202Z,100857.84
2022-07-29T04:38:58.147Z,100861.88
2022-07-29T04:41:33.438Z,100858.64
2022-07-29T04:44:10.356Z,100854.84
2022-07-29T04:46:37.657Z,100853.90
2022-07-29T04:49:05.407Z,100857.13
2022-07-29T04:51:32.407Z,100853.09
2022-07-29T04:53:59.786Z,100846.58
2022-07-29T04:56:27.008Z,100844.55
2022-07-29T04:58:54.629Z,100836.68
2022-07-29T05:01:22.018Z,100838.90
2022-07-29T05:03:48.908Z,100833.89
2022-07-29T05:06:15.834Z,100840.02
2022-07-29T05:08:42.867Z,100835.28
2022-07-29T05:11:14.941Z,100837.73
2022-07-29T05:13:47.237Z,100838.36
2022-07-29T05:16:18.176Z,100842.40
2022-07-29T05:18:48.664Z,100843.29
2022-07-29T05:21:19.180Z,100842.86
2022-07-29T05:23:51.456Z,100849.73
2022-07-29T05:26:22.145Z,100848.48
2022-07-29T05:28:52.788Z,100845.45
2022-07-29T05:31:23.319Z,100839.40
2022-07-29T05:33:51.880Z,100839.64
2022-07-29T05:36:20.190Z,100838.59
2022-07-29T05:38:48.568Z,100833.89
2022-07-29T05:41:20.534Z,100832.42
2022-07-29T05:43:49.786Z,100832.05
2022-07-29T05:46:19.025Z,100836.05
2022-07-29T05:48:46.758Z,100834.98
2022-07-29T05:51:14.675Z,100834.12
2022-07-29T05:53:43.617Z,100836.50
2022-07-29T05:56:12.663Z,100840.70
2022-07-29T05:58:42.316Z,100840.12
2022-07-29T06:01:11.860Z,100840.89
2022-07-29T06:03:42.498Z,100837.81
2022-07-29T06:06:11.263Z,100836.88
2022-07-29T06:08:42.606Z,100832.68
2022-07-29T06:11:11.637Z,100827.55
2022-07-29T06:13:39.363Z,100829.31
2022-07-29T06:16:08.086Z,100832.55
2022-07-29T06:18:35.989Z,100836.95
2022-07-29T06:21:09.743Z,100838.91
2022-07-29T06:23:39.270Z,100841.81
2022-07-29T06:26:07.094Z,100838.83
2022-07-29T06:28:33.849Z,100836.70
2022-07-29T06:31:00.802Z,100847.19
2022-07-29T06:33:28.190Z,100851.33
2022-07-29T06:35:55.446Z,100848.56
2022-07-29T06:38:33.800Z,100847.36
2022-07-29T06:41:06.517Z,100854.26
2022-07-29T06:43:52.125Z,100855.38
2022-07-29T06:46:23.824Z,100858.99
2022-07-29T06:48:53.042Z,100864.30
2022-07-29T06:51:23.055Z,100858.27
2022-07-29T06:53:59.564Z,100855.89
2022-07-29T06:56:38.111Z,100856.98
2022-07-29T06:59:08.653Z,100861.89
2022-07-29T07:01:41.768Z,100860.34
2022-07-29T07:04:09.192Z,100862.97
2022-07-29T07:06:38.256Z,100865.34
2022-07-29T07:09:07.411Z,100858.29
2022-07-29T07:11:35.026Z,100852.48
2022-07-29T07:14:14.517Z,100852.54
2022-07-29T07:16:43.128Z,100853.34
2022-07-29T07:19:10.981Z,100845.95
2022-07-29T07:21:42.701Z,100845.10
2022-07-29T07:24:09.930Z,100846.81
2022-07-29T07:26:37.434Z,100849.04
2022-07-29T07:29:05.089Z,100844.19
2022-07-29T07:31:32.995Z,100846.15
2022-07-29T07:34:00.924Z,100843.98
2022-07-29T07:36:28.579Z,100847.60
2022-07-29T07:38:56.671Z,100845.80
2022-07-29T07:41:24.543Z,100844.77
2022-07-29T07:43:52.489Z,100840.15
2022-07-29T07:46:19.632Z,100847.38
2022-07-29T07:48:47.288Z,100843.59
2022-07-29T07:51:15.230Z,100840.66
2022-07-29T07:53:42.621Z,100842.80
2022-07-29T07:56:11.752Z,100843.80
2022-07-29T07:58:40.307Z,100845.42
2022-07-29T08:01:08.805Z,100842.31
2022-07-29T08:03:36.591Z,100842.61
2022-07-29T08:06:05.183Z,100851.10
2022-07-29T08:08:32.754Z,100856.13
2022-07-29T08:11:04.305Z,100857.88
2022-07-29T08:13:38.840Z,100858.70
2022-07-29T08:16:15.566Z,100856.98
2022-07-29T08:18:46.053Z,100856.69
2022-07-29T08:21:16.077Z,100854.52
2022-07-29T08:23:52.748Z,100853.95
2022-07-29T08:26:26.046Z,100854.61
2022-07-29T08:28:53.675Z,100852.11
2022-07-29T08:31:21.582Z,100849.44
2022-07-29T08:33:48.991Z,100848.89
2022-07-29T08:36:16.819Z,100848.91
2022-07-29T08:38:43.797Z,100843.61
2022-07-29T08:41:10.957Z,100841.85
2022-07-29T08:43:38.852Z,100837.23
2022-07-29T08:46:06.367Z,100838.36
2022-07-29T08:48:35.229Z,100838.13
2022-07-29T08:51:04.398Z,100839.52
2022-07-29T08:53:33.846Z,100836.27
2022-07-29T08:56:02.728Z,100838.04
2022-07-29T08:58:36.884Z,100835.39
2022-07-29T09:01:12.506Z,100833.13
2022-07-29T09:03:44.775Z,100833.94
2022-07-29T09:06:18.427Z,100834.55
2022-07-29T09:08:46.428Z,100836.69
2022-07-29T09:11:15.695Z,100836.41
2022-07-29T09:13:43.328Z,100835.52
2022-07-29T09:16:11.045Z,100837.55
2022-07-29T09:18:41.245Z,100844.45
2022-07-29T09:21:30.522Z,100840.05
2022-07-29T09:24:11.574Z,100841.23
2022-07-29T09:26:44.687Z,100840.30
2022-07-29T09:29:17.477Z,100839.95
2022-07-29T09:31:53.050Z,100840.23
2022-07-29T09:34:32.573Z,100840.36
2022-07-29T09:37:00.597Z,100838.16
2022-07-29T09:39:49.448Z,100832.23
2022-07-29T09:42:30.115Z,100832.24
2022-07-29T09:44:57.591Z,100830.73
2022-07-29T09:47:50.014Z,100830.05
2022-07-29T09:50:20.677Z,100828.57
2022-07-29T09:52:51.013Z,100830.50
2022-07-29T09:55:19.884Z,100828.39
2022-07-29T09:57:47.723Z,100829.20
2022-07-29T10:00:18.601Z,100829.57
2022-07-29T10:02:48.139Z,100823.95
2022-07-29T10:05:24.785Z,100819.34
2022-07-29T10:07:57.880Z,100816.19
2022-07-29T10:10:30.951Z,100812.42
2022-07-29T10:13:06.415Z,100807.70
2022-07-29T10:15:40.244Z,100800.80
2022-07-29T10:18:09.844Z,100793.09
2022-07-29T10:20:39.865Z,100791.64
2022-07-29T10:23:12.113Z,100789.23
2022-07-29T10:25:39.849Z,100785.15
2022-07-29T10:28:07.710Z,100784.33
2022-07-29T10:30:35.583Z,100786.45
2022-07-29T10:33:19.626Z,100788.53
2022-07-29T10:36:09.723Z,100786.75
2022-07-29T10:38:47.117Z,100785.59
2022-07-29T10:41:27.807Z,100786.42
2022-07-29T10:44:17.364Z,100783.52
2022-07-29T10:46:47.770Z,100778.81
2022-07-29T10:49:24.846Z,100773.58
2022-07-29T10:52:09.236Z,100778.55
2022-07-29T10:54:36.075Z,100780.51
2022-07-29T10:57:17.403Z,100784.40
2022-07-29T10:59:47.868Z,100782.47
2022-07-29T11:02:41.954Z,100777.94
2022-07-29T11:05:21.947Z,100777.33
2022-07-29T11:08:20.512Z,100775.14
2022-07-29T11:10:49.649Z,100768.97
2022-07-29T11:13:47.362Z,100771.48
2022-07-29T11:16:20.199Z,100767.30
2022-07-29T11:19:14.892Z,100767.60
2022-07-29T11:24:36.964Z,100761.71
2022-07-29T11:27:21.767Z,100760.53
2022-07-29T11:29:58.722Z,100757.76
2022-07-29T11:32:48.719Z,100760.23
2022-07-29T11:35:36.766Z,100759.55
2022-07-29T11:38:31.642Z,100759.08
2022-07-29T11:41:18.479Z,100755.95
2022-07-29T11:43:51.858Z,100756.24
2022-07-29T11:46:51.917Z,100753.21
2022-07-29T11:49:32.521Z,100756.39
2022-07-29T11:52:05.753Z,100752.11
2022-07-29T11:54:57.971Z,100748.80
2022-07-29T12:00:23.097Z,100749.73
2022-07-29T12:02:52.153Z,100746.45
2022-07-29T12:05:35.966Z,100747.34
2022-07-29T12:08:14.780Z,100746.91
2022-07-29T12:10:43.043Z,100748.70
2022-07-29T12:13:11.471Z,100744.66
2022-07-29T12:15:46.195Z,100744.87
2022-07-29T12:18:19.144Z,100736.48
2022-07-29T12:20:50.288Z,100737.80
2022-07-29T12:23:18.856Z,100739.59
2022-07-29T12:25:49.977Z,100741.95
2022-07-29T12:28:27.583Z,100744.52
2022-07-29T12:30:59.043Z,100742.61
2022-07-29T12:33:30.017Z,100741.96
2022-07-29T12:36:09.403Z,100740.40
2022-07-29T12:38:41.806Z,100745.52
2022-07-29T12:41:09.404Z,100744.49
2022-07-29T12:43:37.152Z,100746.67
2022-07-29T12:46:16.305Z,100740.54
2022-07-29T12:48:44.791Z,100742.08
2022-07-29T12:51:14.935Z,100736.65
2022-07-29T12:53:45.167Z,100734.86
2022-07-29T12:56:41.255Z,100735.32
2022-07-29T12:59:19.930Z,100729.99
2022-07-29T13:01:50.008Z,100724.86
2022-07-29T13:04:32.188Z,100724.76
2022-07-29T13:07:08.350Z,100722.83
2022-07-29T13:09:44.935Z,100722.20
2022-07-29T13:12:15.835Z,100720.17
2022-07-29T13:14:45.868Z,100715.90
2022-07-29T13:17:17.619Z,100717.41
2022-07-29T13:19:45.593Z,100715.06
2022-07-29T13:22:16.088Z,100711.99
2022-07-29T13:24:54.156Z,100714.06
2022-07-29T13:27:27.302Z,100708.61
2022-07-29T13:30:00.594Z,100704.59
2022-07-29T13:32:30.081Z,100704.52
2022-07-29T13:35:00.360Z,100701.73
2022-07-29T13:37:31.972Z,100693.99
2022-07-29T13:40:04.311Z,100690.75
2022-07-29T13:42:33.955Z,100689.83
2022-07-29T13:45:02.020Z,100689.67
2022-07-29T13:47:32.165Z,100686.90
2022-07-29T13:50:03.241Z,100682.98
2022-07-29T13:52:35.799Z,100681.95
2022-07-29T13:55:05.167Z,100682.38
2022-07-29T13:57:37.463Z,100677.91
2022-07-29T14:00:08.661Z,100677.41
2022-07-29T14:02:42.579Z,100673.34
2022-07-29T14:05:13.781Z,100675.91
2022-07-29T14:07:47.828Z,100675.94
2022-07-29T14:10:20.063Z,100673.19
2022-07-29T14:12:50.802Z,100668.85
2022-07-29T14:15:20.751Z,100668.95
2022-07-29T14:17:53.426Z,100670.55
2022-07-29T14:20:23.751Z,100672.90
2022-07-29T14:22:53.547Z,100671.50
2022-07-29T14:25:26.102Z,100668.41
2022-07-29T14:27:55.411Z,100669.30
2022-07-29T14:30:28.616Z,100666.02
2022-07-29T14:32:56.384Z,100669.09
2022-07-29T14:35:23.194Z,100668.88
2022-07-29T14:37:50.354Z,100663.48
2022-07-29T14:40:18.025Z,100658.36
2022-07-29T14:42:47.212Z,100657.84
2022-07-29T14:45:14.924Z,100658.86
2022-07-29T14:47:42.305Z,100655.56
2022-07-29T14:50:14.426Z,100650.87
2022-07-29T14:52:47.167Z,100652.05
2022-07-29T14:55:20.217Z,100657.14
2022-07-29T14:57:50.747Z,100656.77
2022-07-29T15:00:18.976Z,100651.67
2022-07-29T15:03:01.486Z,100651.81
2022-07-29T15:05:32.316Z,100647.92
2022-07-29T15:08:00.949Z,100648.07
2022-07-29T15:10:34.874Z,100646.77
2022-07-29T15:13:07.863Z,100645.87
2022-07-29T15:15:39.570Z,100641.36
2022-07-29T15:18:07.341Z,100644.60
2022-07-29T15:20:36.666Z,100639.80
2022-07-29T15:23:04.457Z,100634.20
2022-07-29T15:25:37.368Z,100633.39
2022-07-29T15:28:07.792Z,100633.67
2022-07-29T15:30:41.194Z,100628.67
2022-07-29T15:33:10.716Z,100625.27
2022-07-29T15:36:42.184Z,100618.13
2022-07-29T15:39:06.571Z,100615.34
2022-07-29T15:41:36.037Z,100615.91
2022-07-29T15:44:05.882Z,100616.36
2022-07-29T15:46:54.386Z,100618.98
2022-07-29T15:49:25.764Z,100613.52
2022-07-29T15:51:59.775Z,100609.25
2022-07-29T15:54:28.298Z,100607.33
2022-07-29T15:56:57.334Z,100605.72
2022-07-29T15:59:26.198Z,100598.45
2022-07-29T16:01:54.036Z,100594.20
2022-07-29T16:04:22.091Z,100589.89
2022-07-29T16:06:50.475Z,100589.89
2022-07-29T16:09:18.456Z,100587.17
2022-07-29T16:11:45.949Z,100589.64
2022-07-29T16:14:15.636Z,100586.54
2022-07-29T16:16:43.269Z,100585.09
2022-07-29T16:19:10.350Z,100581.20
2022-07-29T16:21:38.871Z,100585.24
2022-07-29T16:24:07.191Z,100586.05
2022-07-29T16:26:36.262Z,100585.83
2022-07-29T16:29:04.919Z,100585.66
2022-07-29T16:31:34.289Z,100583.46
2022-07-29T16:34:02.802Z,100582.91
2022-07-29T16:36:31.463Z,100579.66
2022-07-29T16:38:59.711Z,100578.30
2022-07-29T16:41:27.420Z,100580.07
2022-07-29T16:43:55.148Z,100578.98
2022-07-29T16:46:22.407Z,100584.21
2022-07-29T16:48:52.464Z,100579.73
2022-07-29T16:51:22.570Z,100588.11
2022-07-29T16:53:50.554Z,100591.96
2022-07-29T16:56:18.019Z,100592.95
2022-07-29T16:58:47.199Z,100592.75
2022-07-29T17:01:28.411Z,100592.20
2022-07-29T17:04:08.299Z,100589.70
2022-07-29T17:06:38.657Z,100593.00
2022-07-29T17:09:08.297Z,100594.62
2022-07-29T17:11:53.623Z,100595.27
2022-07-29T17:14:28.793Z,100590.89
2022-07-29T17:17:01.420Z,100593.80
2022-07-29T17:19:36.013Z,100598.31
2022-07-29T17:22:13.024Z,100597.81
2022-07-29T17:24:46.535Z,100595.66
2022-07-29T17:27:14.998Z,100603.60
2022-07-29T17:29:42.448Z,100603.89
2022-07-29T17:32:10.058Z,100601.13
2022-07-29T17:34:38.221Z,100603.55
2022-07-29T17:37:08.522Z,100603.05
2022-07-29T17:39:40.086Z,100606.60
2022-07-29T17:42:09.629Z,100608.75
2022-07-29T17:44:38.728Z,100611.17
2022-07-29T17:47:16.488Z,100611.23
2022-07-29T17:49:47.134Z,100608.04
2022-07-29T17:52:18.084Z,100610.02
2022-07-29T17:54:49.307Z,100611.14
2022-07-29T17:57:18.020Z,100611.39
2022-07-29T17:59:49.670Z,100610.66
2022-07-29T18:02:19.468Z,100607.20
2022-07-29T18:04:50.742Z,100616.10
2022-07-29T18:07:20.601Z,100620.75
2022-07-29T18:09:48.907Z,100615.70
2022-07-29T18:12:17.501Z,100615.67
2022-07-29T18:14:46.373Z,100613.92
2022-07-29T18:17:14.423Z,100615.86
2022-07-29T18:19:42.308Z,100613.52
2022-07-29T18:22:13.176Z,100620.87
2022-07-29T18:24:42.671Z,100625.31
2022-07-29T18:27:09.713Z,100627.99
2022-07-29T18:29:37.319Z,100628.27
2022-07-29T18:32:06.234Z,100627.02
2022-07-29T18:34:34.354Z,100623.55
2022-07-29T18:37:02.005Z,100617.92
2022-07-29T18:39:29.512Z,100617.60
2022-07-29T18:41:56.505Z,100615.11
2022-07-29T18:44:23.372Z,100615.52
2022-07-29T18:46:51.503Z,100609.79
2022-07-29T18:49:20.555Z,100610.84
2022-07-29T18:51:49.334Z,100609.22
2022-07-29T18:54:17.224Z,100613.04
2022-07-29T18:56:48.297Z,100618.39
2022-07-29T18:59:17.800Z,100619.77
2022-07-29T19:01:46.457Z,100625.67
2022-07-29T19:04:14.571Z,100627.92
2022-07-29T19:06:42.686Z,100629.85
2022-07-29T19:09:10.077Z,100635.77
2022-07-29T19:11:39.962Z,100636.86
2022-07-29T19:14:12.322Z,100634.83
2022-07-29T19:16:40.638Z,100636.52
2022-07-29T19:19:08.995Z,100634.64
2022-07-29T19:21:36.708Z,100635.45
2022-07-29T19:24:06.735Z,100636.93
2022-07-29T19:26:42.353Z,100640.48
2022-07-29T19:29:10.222Z,100647.02
2022-07-29T19:31:41.730Z,100650.43
2022-07-29T19:34:11.220Z,100651.66
2022-07-29T19:36:39.065Z,100653.33
2022-07-29T19:39:06.655Z,100655.03
2022-07-29T19:41:34.550Z,100652.63
2022-07-29T19:44:01.588Z,100654.35
2022-07-29T19:46:29.301Z,100651.70
2022-07-29T19:48:57.362Z,100650.33
2022-07-29T19:51:24.171Z,100656.20
2022-07-29T19:53:52.751Z,100657.80
2022-07-29T19:56:22.114Z,100660.10
2022-07-29T19:58:52.420Z,100662.43
2022-07-29T20:01:20.339Z,100659.39
2022-07-29T20:03:47.253Z,100661.06
2022-07-29T20:06:15.424Z,100659.59
2022-07-29T20:08:42.606Z,100661.50
2022-07-29T20:11:09.557Z,100656.81
2022-07-29T20:13:36.942Z,100659.13
2022-07-29T20:16:06.002Z,100656.80
2022-07-29T20:18:33.281Z,100658.49
2022-07-29T20:21:06.618Z,100659.02
2022-07-29T20:24:04.103Z,100663.63
2022-07-29T20:27:29.215Z,100658.79
2022-07-29T20:29:58.501Z,100662.86
2022-07-29T20:32:26.146Z,100663.63
2022-07-29T20:34:53.326Z,100661.63
2022-07-29T20:37:20.742Z,100661.60
2022-07-29T20:39:47.677Z,100659.66
2022-07-29T20:42:15.904Z,100662.10
2022-07-29T20:44:44.188Z,100664.42
2022-07-29T20:47:12.483Z,100664.89
2022-07-29T20:49:39.205Z,100668.60
2022-07-29T20:52:06.355Z,100675.02
2022-07-29T20:54:34.372Z,100674.46
2022-07-29T20:57:02.142Z,100677.00
2022-07-29T20:59:30.465Z,100672.73
2022-07-29T21:01:57.713Z,100676.37
2022-07-29T21:04:30.572Z,100675.80
2022-07-29T21:07:00.419Z,100673.88
2022-07-29T21:09:30.509Z,100676.71
2022-07-29T21:12:00.621Z,100675.66
2022-07-29T21:14:40.682Z,100674.59
2022-07-29T21:17:07.838Z,100677.44
2022-07-29T21:19:34.830Z,100674.11
2022-07-29T21:22:02.239Z,100673.67
2022-07-29T21:24:29.893Z,100665.95
2022-07-29T21:30:09.408Z,100660.42
2022-07-29T21:32:37.253Z,100660.73
2022-07-29T21:35:18.235Z,100653.21
2022-07-29T21:37:52.515Z,100654.78
2022-07-29T21:40:19.809Z,100654.28
2022-07-29T21:42:46.583Z,100654.81
2022-07-29T21:45:14.689Z,100657.02
2022-07-29T21:47:41.867Z,100655.41
2022-07-29T21:50:10.789Z,100655.54
2022-07-29T21:52:41.807Z,100653.25
2022-07-29T21:55:10.546Z,100653.95
2022-07-29T21:57:41.199Z,100658.37
2022-07-29T22:00:15.441Z,100656.00
